createdAt,value
2018-07-29T00:00:46.853Z,98.10
2018-07-29T00:03:27.807Z,98.30
2018-07-29T00:14:58.151Z,98.10
2018-07-29T00:17:56.681Z,98.10
2018-07-29T00:20:38.311Z,98.20
2018-07-29T00:23:20.599Z,98.30
2018-07-29T00:26:04.829Z,98.40
2018-07-29T00:29:05.394Z,98.30
2018-07-29T00:31:40.313Z,98.10
2018-07-29T00:34:19.722Z,98.00
2018-07-29T00:37:16.039Z,98.30
2018-07-29T00:39:53.567Z,98.30
2018-07-29T00:42:39.192Z,98.20
2018-07-29T00:45:21.326Z,98.20
2018-07-29T00:48:06.308Z,98.10
2018-07-29T00:50:46.016Z,98.20
2018-07-29T00:53:25.329Z,98.10
2018-07-29T00:56:08.615Z,98.00
2018-07-29T00:59:01.117Z,98.10
2018-07-29T01:01:40.471Z,98.00
2018-07-29T01:04:17.670Z,97.80
2018-07-29T01:07:01.918Z,97.80
2018-07-29T01:09:46.128Z,97.90
2018-07-29T01:12:25.813Z,98.00
2018-07-29T01:15:16.606Z,98.00
2018-07-29T01:17:54.298Z,98.20
2018-07-29T01:20:37.243Z,97.90
2018-07-29T01:23:24.293Z,97.80
2018-07-29T01:26:07.878Z,98.00
2018-07-29T01:28:46.447Z,98.00
2018-07-29T01:31:29.587Z,98.10
2018-07-29T01:34:20.171Z,98.30
2018-07-29T01:36:55.865Z,98.30
2018-07-29T01:39:37.342Z,97.90
2018-07-29T01:42:15.508Z,97.50
2018-07-29T01:44:49.451Z,97.40
2018-07-29T01:47:23.275Z,97.50
2018-07-29T01:50:01.366Z,97.60
2018-07-29T01:52:39.868Z,97.70
2018-07-29T01:55:15.425Z,97.90
2018-07-29T02:00:30.516Z,97.90
2018-07-29T02:03:20.745Z,98.30
2018-07-29T02:05:56.672Z,99.30
2018-07-29T02:08:36.311Z,99.90
2018-07-29T02:11:25.468Z,99.90
2018-07-29T02:14:12.294Z,99.90
2018-07-29T02:16:53.334Z,99.90
2018-07-29T02:19:27.369Z,99.90
2018-07-29T02:24:40.500Z,99.90
2018-07-29T02:27:14.829Z,99.90
2018-07-29T02:29:50.997Z,99.90
2018-07-29T02:35:17.470Z,99.90
2018-07-29T02:37:51.424Z,99.90
2018-07-29T02:40:31.867Z,99.90
2018-07-29T02:43:06.697Z,99.90
2018-07-29T02:45:46.184Z,99.90
2018-07-29T02:48:25.334Z,99.90
2018-07-29T02:51:03.584Z,99.90
2018-07-29T02:53:47.834Z,99.90
2018-07-29T02:56:27.216Z,99.90
2018-07-29T02:59:04.925Z,99.90
2018-07-29T03:01:41.475Z,99.90
2018-07-29T03:04:15.896Z,99.90
2018-07-29T03:06:49.777Z,99.90
2018-07-29T03:09:24.903Z,99.90
2018-07-29T03:12:13.703Z,99.90
2018-07-29T03:14:55.040Z,99.90
2018-07-29T03:17:31.757Z,99.90
2018-07-29T03:20:10.473Z,99.90
2018-07-29T03:22:44.591Z,99.90
2018-07-29T03:25:33.570Z,99.90
2018-07-29T03:31:07.733Z,99.90
2018-07-29T03:33:43.697Z,99.90
2018-07-29T03:36:18.503Z,99.90
2018-07-29T03:41:38.275Z,99.90
2018-07-29T03:44:19.199Z,99.90
2018-07-29T03:47:03.731Z,99.90
2018-07-29T03:49:43.347Z,99.90
2018-07-29T03:52:23.822Z,99.90
2018-07-29T03:55:10.910Z,99.90
2018-07-29T03:58:06.143Z,99.90
2018-07-29T04:00:42.118Z,99.90
2018-07-29T04:03:18.808Z,99.90
2018-07-29T04:05:59.436Z,99.90
2018-07-29T04:08:34.457Z,99.90
2018-07-29T04:11:34.122Z,99.90
2018-07-29T04:14:22.104Z,99.90
2018-07-29T04:17:12.140Z,99.90
2018-07-29T04:25:10.159Z,99.90
2018-07-29T04:27:51.647Z,99.90
2018-07-29T04:30:31.387Z,99.90
2018-07-29T04:33:11.465Z,99.90
2018-07-29T04:35:57.038Z,99.90
2018-07-29T04:38:36.670Z,99.90
2018-07-29T04:41:11.956Z,99.90
2018-07-29T04:43:42.417Z,99.90
2018-07-29T04:46:19.249Z,99.90
2018-07-29T04:48:52.991Z,99.90
2018-07-29T04:51:27.365Z,99.90
2018-07-29T04:54:00.979Z,99.90
2018-07-29T04:56:41.125Z,99.90
2018-07-29T04:59:17.275Z,99.90
2018-07-29T05:01:50.120Z,99.90
2018-07-29T05:04:27.380Z,99.90
2018-07-29T05:07:07.026Z,99.90
2018-07-29T05:09:41.633Z,99.90
2018-07-29T05:12:14.102Z,99.90
2018-07-29T05:14:51.931Z,99.90
2018-07-29T05:17:35.390Z,99.90
2018-07-29T05:20:22.818Z,99.90
2018-07-29T05:23:04.939Z,99.90
2018-07-29T05:25:44.908Z,99.90
2018-07-29T05:28:19.312Z,99.90
2018-07-29T05:31:00.447Z,99.90
2018-07-29T05:33:38.567Z,99.90
2018-07-29T05:36:13.874Z,99.90
2018-07-29T05:38:49.168Z,99.90
2018-07-29T05:41:30.261Z,99.90
2018-07-29T05:44:06.449Z,99.90
2018-07-29T05:46:38.639Z,99.90
2018-07-29T05:49:12.118Z,99.90
2018-07-29T05:51:44.546Z,99.90
2018-07-29T05:54:20.959Z,99.90
2018-07-29T05:56:56.707Z,99.90
2018-07-29T05:59:31.029Z,99.90
2018-07-29T06:02:15.809Z,99.90
2018-07-29T06:05:00.590Z,98.60
2018-07-29T06:07:54.049Z,98.00
2018-07-29T06:10:51.424Z,99.50
2018-07-29T06:13:31.938Z,99.30
2018-07-29T06:22:02.666Z,95.30
2018-07-29T06:31:53.282Z,96.20
2018-07-29T06:34:47.893Z,96.80
2018-07-29T06:37:46.877Z,96.30
2018-07-29T06:40:38.696Z,93.80
2018-07-29T06:43:31.497Z,90.60
2018-07-29T06:49:07.988Z,88.20
2018-07-29T06:57:42.526Z,85.50
2018-07-29T07:00:27.067Z,77.70
2018-07-29T07:03:21.361Z,75.40
2018-07-29T07:09:01.335Z,77.40
2018-07-29T07:11:50.312Z,80.00
2018-07-29T07:14:35.203Z,79.50
2018-07-29T07:20:17.778Z,77.60
2018-07-29T07:23:22.980Z,75.30
2018-07-29T07:38:11.898Z,69.60
2018-07-29T07:41:10.176Z,66.50
2018-07-29T07:43:54.560Z,67.40
2018-07-29T07:52:41.665Z,68.80
2018-07-29T07:55:16.161Z,66.70
2018-07-29T07:57:51.622Z,63.70
2018-07-29T08:00:29.538Z,66.30
2018-07-29T08:03:03.695Z,69.10
2018-07-29T08:05:58.975Z,70.40
2018-07-29T23:05:44.680Z,71.90
2018-07-29T23:08:17.999Z,69.80
2018-07-29T23:10:52.857Z,69.20
2018-07-29T23:13:41.232Z,69.20
2018-07-29T23:16:19.233Z,68.40
2018-07-29T23:18:51.518Z,69.80
2018-07-29T23:21:22.032Z,70.80
2018-07-29T23:23:59.400Z,71.40
2018-07-29T23:26:33.384Z,71.10
2018-07-29T23:29:04.045Z,71.70
2018-07-29T23:31:36.573Z,72.20
2018-07-29T23:34:13.458Z,73.00
2018-07-29T23:36:46.511Z,73.20
2018-07-29T23:39:24.961Z,73.80
2018-07-29T23:41:56.239Z,73.90
2018-07-29T23:44:30.147Z,74.10
2018-07-29T23:47:05.478Z,75.00
2018-07-29T23:49:38.237Z,75.20
2018-07-29T23:52:14.960Z,75.80
2018-07-29T23:54:46.138Z,76.40
2018-07-29T23:57:22.043Z,76.50
